EFHK/HEL METAR and TAF weather

Enter ICAO airport designator
Station Type Date Time Source
EFHK METAR 2019/12/16 03:20 UTC NOAA

EFHK 160320Z 14006KT 9999 -RA FEW008 SCT012 BKN025 03/02 Q0992 BECMG BKN011


Station Type Date Time Source
EFHK Decoded METAR 2019/12/16 03:20 UTC NOAA

Helsinki-Vantaa, Finland (EFHK) 60-19N 024-58E 56M
Dec 15, 2019 - 10:20 PM EST / 2019.12.16 0320 UTC
Wind: from the SE (140 degrees) at 7 MPH (6 KT):0
Visibility: greater than 7 mile(s):0
Sky conditions: mostly cloudy
Weather: light rain
Temperature: 37 F (3 C)
Dew Point: 35 F (2 C)
Relative Humidity: 93%
Pressure (altimeter): 29.29 in. Hg (0992 hPa)
ob: EFHK 160320Z 14006KT 9999 -RA FEW008 SCT012 BKN025 03/02 Q0992 BECMG BKN011
cycle: 3

Station Type Date Time Source
EFHK TAF 2019/12/16 03:42 UTC NOAA

TAF TAF EFHK 160233Z 1603/1703 13006KT 9999 FEW007 SCT010 BKN016 FEW030TCU
BECMG 1603/1605 BKN009
BECMG 1605/1607 5000 -RADZ BKN003
TEMPO 1607/1612 2500 DZ
BECMG 1612/1614 9999 FEW003 BKN015
TEMPO 1614/1703 4000 BR BKN003

Example: see airport list